Time;durP1;ratioP1;P1;durP2;ratioP2;P2;SDS_P1;SDS_P2;PMS_P1;PMS_P2;Temp;Humidity;BMP_temperature;BMP_pressure;BME280_temperature;BME280_humidity;BME280_pressure;Samples;Min_cycle;Max_cycle;Signal;HPM_P1;HPM_P2
2024/01/13 00:01:03;;;;;;;11.07;7.82;;;;;;;;;;5042051;28;20040;-55
2024/01/13 00:03:28;;;;;;;10.35;7.50;;;;;;;;;;5025174;28;20056;-56
2024/01/13 00:05:53;;;;;;;10.50;7.88;;;;;;;;;;5043151;28;20579;-56
2024/01/13 00:08:19;;;;;;;11.30;8.35;;;;;;;;;;5043874;28;20121;-57
2024/01/13 00:10:44;;;;;;;10.02;7.30;;;;;;;;;;5042387;28;20037;-56
2024/01/13 00:13:09;;;;;;;10.25;7.32;;;;;;;;;;5042067;28;20040;-55
2024/01/13 00:15:35;;;;;;;12.02;7.88;;;;;;;;;;5025229;28;20527;-55
2024/01/13 00:18:01;;;;;;;11.00;7.82;;;;;;;;;;5024140;28;20068;-57
2024/01/13 00:20:26;;;;;;;12.30;8.13;;;;;;;;;;5043078;28;20071;-57
2024/01/13 00:22:51;;;;;;;9.50;7.28;;;;;;;;;;5042206;28;20657;-56
2024/01/13 00:25:17;;;;;;;11.20;7.82;;;;;;;;;;5043264;28;20102;-56
2024/01/13 00:27:42;;;;;;;11.27;7.90;;;;;;;;;;5042839;28;20041;-55
2024/01/13 00:30:08;;;;;;;11.55;8.05;;;;;;;;;;5043123;28;20106;-55
2024/01/13 00:32:33;;;;;;;10.27;7.88;;;;;;;;;;5042647;28;20045;-56
2024/01/13 00:34:58;;;;;;;11.15;8.10;;;;;;;;;;5044788;28;20555;-56
2024/01/13 00:37:24;;;;;;;10.13;7.45;;;;;;;;;;5041928;28;20029;-55
2024/01/13 00:39:49;;;;;;;10.93;7.60;;;;;;;;;;5043387;28;20048;-55
2024/01/13 00:42:14;;;;;;;11.00;7.70;;;;;;;;;;5042577;28;20037;-56
2024/01/13 00:44:40;;;;;;;10.18;7.43;;;;;;;;;;5042384;28;20080;-56
2024/01/13 00:47:05;;;;;;;10.27;7.78;;;;;;;;;;5040854;28;20567;-55
2024/01/13 00:49:30;;;;;;;10.73;7.57;;;;;;;;;;5042904;28;20041;-55
2024/01/13 00:51:56;;;;;;;11.20;8.02;;;;;;;;;;5041418;28;20111;-56
2024/01/13 00:54:21;;;;;;;9.70;7.63;;;;;;;;;;5042643;28;20039;-56
2024/01/13 00:56:46;;;;;;;11.95;7.85;;;;;;;;;;5041727;28;20060;-56
2024/01/13 00:59:12;;;;;;;11.18;7.75;;;;;;;;;;5041365;28;20127;-56
2024/01/13 01:04:40;;;;;;;12.65;7.75;;;;;;;;;;5040274;22;20601;-53
2024/01/13 01:07:06;;;;;;;10.75;7.45;;;;;;;;;;5006428;28;20124;-55
2024/01/13 01:09:31;;;;;;;9.82;7.15;;;;;;;;;;5023836;23;20052;-56
2024/01/13 01:11:56;;;;;;;11.93;8.10;;;;;;;;;;5020960;28;20146;-56
2024/01/13 01:14:22;;;;;;;10.82;7.38;;;;;;;;;;5022460;28;20120;-56
2024/01/13 01:16:47;;;;;;;10.52;7.75;;;;;;;;;;5023302;28;20136;-55
2024/01/13 01:19:13;;;;;;;10.07;7.30;;;;;;;;;;5021030;28;20121;-55
2024/01/13 01:21:38;;;;;;;10.00;7.50;;;;;;;;;;5022196;28;20083;-55
2024/01/13 01:24:03;;;;;;;10.90;7.68;;;;;;;;;;5023149;28;20034;-56
2024/01/13 01:26:28;;;;;;;10.40;7.60;;;;;;;;;;5006303;28;20048;-56
2024/01/13 01:28:54;;;;;;;10.05;7.75;;;;;;;;;;5046926;23;20045;-55
2024/01/13 01:31:19;;;;;;;10.85;7.45;;;;;;;;;;5041630;28;20116;-55
2024/01/13 01:33:45;;;;;;;11.05;7.72;;;;;;;;;;5031630;28;20112;-55
2024/01/13 01:36:10;;;;;;;11.07;7.57;;;;;;;;;;5044728;28;20106;-55
2024/01/13 01:38:36;;;;;;;10.27;6.97;;;;;;;;;;5046326;28;20419;-55
2024/01/13 01:41:02;;;;;;;10.77;7.40;;;;;;;;;;5046229;28;20543;-55
2024/01/13 01:43:27;;;;;;;9.85;7.35;;;;;;;;;;5047961;28;20556;-55
2024/01/13 01:45:53;;;;;;;9.77;6.65;;;;;;;;;;5045941;28;20128;-55
2024/01/13 01:48:19;;;;;;;10.45;7.20;;;;;;;;;;5079112;22;20354;-77
2024/01/13 01:50:44;;;;;;;9.75;7.32;;;;;;;;;;5021795;28;20095;-76
2024/01/13 01:53:11;;;;;;;10.90;7.22;;;;;;;;;;5016559;28;20029;-77
2024/01/13 01:55:37;;;;;;;9.38;7.00;;;;;;;;;;5027083;28;20033;-75
2024/01/13 01:58:02;;;;;;;10.30;7.38;;;;;;;;;;4985189;28;20030;-75
2024/01/13 02:00:28;;;;;;;10.57;7.57;;;;;;;;;;4996966;28;20045;-75
2024/01/13 02:02:54;;;;;;;10.07;7.10;;;;;;;;;;5025817;28;20117;-75
2024/01/13 02:05:20;;;;;;;10.98;7.10;;;;;;;;;;5023724;28;20037;-75
2024/01/13 02:07:48;;;;;;;10.35;7.47;;;;;;;;;;5026112;28;20088;-76
2024/01/13 02:10:13;;;;;;;11.38;7.55;;;;;;;;;;5019735;28;20033;-76
2024/01/13 02:12:38;;;;;;;10.68;7.30;;;;;;;;;;5018180;28;20037;-75
2024/01/13 02:15:04;;;;;;;10.00;7.03;;;;;;;;;;5014558;28;20912;-75
2024/01/13 02:17:29;;;;;;;10.65;7.40;;;;;;;;;;5012925;28;20068;-77
2024/01/13 02:19:56;;;;;;;9.25;7.18;;;;;;;;;;5012974;28;20053;-75
2024/01/13 02:22:21;;;;;;;9.95;7.00;;;;;;;;;;5013363;28;20055;-75
2024/01/13 02:24:47;;;;;;;9.85;7.05;;;;;;;;;;5017895;28;20121;-75
2024/01/13 02:27:14;;;;;;;10.73;7.28;;;;;;;;;;5007113;28;20082;-75
2024/01/13 02:29:39;;;;;;;9.73;7.10;;;;;;;;;;5039597;28;20049;-75
2024/01/13 02:32:05;;;;;;;10.30;7.15;;;;;;;;;;5033111;28;20030;-75
2024/01/13 02:34:30;;;;;;;8.57;7.07;;;;;;;;;;5016284;28;20124;-76
2024/01/13 02:36:55;;;;;;;10.07;7.30;;;;;;;;;;5029666;28;20041;-77
2024/01/13 02:39:21;;;;;;;8.75;6.60;;;;;;;;;;5024808;28;20037;-76
2024/01/13 02:41:47;;;;;;;9.13;6.43;;;;;;;;;;5002002;28;20613;-76
2024/01/13 02:44:12;;;;;;;9.43;6.88;;;;;;;;;;5029700;28;20040;-76
2024/01/13 02:46:38;;;;;;;10.40;6.95;;;;;;;;;;5014698;28;20042;-73
2024/01/13 02:49:03;;;;;;;10.18;7.20;;;;;;;;;;5008780;28;20038;-75
2024/01/13 02:51:28;;;;;;;9.35;6.95;;;;;;;;;;5012722;28;20538;-75
2024/01/13 02:53:54;;;;;;;10.07;7.32;;;;;;;;;;5014238;28;20056;-75
2024/01/13 02:56:20;;;;;;;10.00;7.20;;;;;;;;;;5030284;28;20457;-75
2024/01/13 02:58:45;;;;;;;10.30;6.20;;;;;;;;;;5030969;28;20053;-75
2024/01/13 03:01:11;;;;;;;9.13;6.70;;;;;;;;;;5031199;28;20038;-74
2024/01/13 03:03:36;;;;;;;8.77;6.50;;;;;;;;;;5030100;28;20034;-75
2024/01/13 03:06:03;;;;;;;10.02;7.40;;;;;;;;;;5032311;28;20053;-75
2024/01/13 03:08:28;;;;;;;9.45;6.75;;;;;;;;;;5027574;28;20040;-77
2024/01/13 03:10:53;;;;;;;9.65;7.07;;;;;;;;;;5030790;28;20033;-75
2024/01/13 03:13:19;;;;;;;9.57;6.82;;;;;;;;;;5025422;28;20408;-76
2024/01/13 03:15:44;;;;;;;9.27;6.78;;;;;;;;;;5019872;28;20631;-76
2024/01/13 03:18:10;;;;;;;9.48;6.80;;;;;;;;;;5015730;28;20526;-74
2024/01/13 03:20:35;;;;;;;10.23;6.78;;;;;;;;;;5011573;28;20037;-75
2024/01/13 03:23:00;;;;;;;9.68;7.25;;;;;;;;;;5028141;28;20087;-75
2024/01/13 03:25:26;;;;;;;9.23;6.70;;;;;;;;;;5005954;28;20041;-75
2024/01/13 03:27:51;;;;;;;8.85;6.50;;;;;;;;;;5028705;28;20076;-75
2024/01/13 03:30:17;;;;;;;8.73;6.53;;;;;;;;;;5011190;28;20124;-75
2024/01/13 03:32:43;;;;;;;8.60;6.35;;;;;;;;;;5029821;28;20046;-74
2024/01/13 03:35:08;;;;;;;9.27;6.93;;;;;;;;;;5033469;28;20042;-77
2024/01/13 03:37:33;;;;;;;9.85;7.00;;;;;;;;;;5030494;28;20042;-75
2024/01/13 03:39:59;;;;;;;9.15;7.00;;;;;;;;;;5011140;28;20050;-76
2024/01/13 03:42:24;;;;;;;9.00;6.75;;;;;;;;;;5028541;28;20204;-75
2024/01/13 03:44:49;;;;;;;9.48;7.03;;;;;;;;;;5009905;28;20037;-75
2024/01/13 03:47:15;;;;;;;8.38;6.53;;;;;;;;;;5029304;28;20393;-78
2024/01/13 03:49:40;;;;;;;9.77;6.70;;;;;;;;;;5034911;28;20033;-75
2024/01/13 03:52:05;;;;;;;9.60;6.30;;;;;;;;;;5010897;28;20050;-75
2024/01/13 03:54:31;;;;;;;8.30;6.38;;;;;;;;;;5029165;28;20041;-75
2024/01/13 03:56:59;;;;;;;9.23;6.50;;;;;;;;;;5017509;28;20158;-77
2024/01/13 03:59:24;;;;;;;9.05;6.53;;;;;;;;;;5027973;28;20492;-75
2024/01/13 04:01:50;;;;;;;9.27;6.78;;;;;;;;;;5010463;28;20057;-77
2024/01/13 04:04:15;;;;;;;10.30;6.95;;;;;;;;;;5011890;28;20101;-76
2024/01/13 04:06:41;;;;;;;10.68;7.10;;;;;;;;;;5017102;28;20471;-74
2024/01/13 04:09:07;;;;;;;8.80;6.57;;;;;;;;;;5032303;28;20084;-76
2024/01/13 04:11:33;;;;;;;8.95;6.22;;;;;;;;;;5011784;28;20034;-77
2024/01/13 04:13:58;;;;;;;9.52;6.60;;;;;;;;;;5010080;28;20037;-75
2024/01/13 04:16:23;;;;;;;9.65;7.00;;;;;;;;;;5009533;28;20033;-76
2024/01/13 04:18:49;;;;;;;8.95;6.53;;;;;;;;;;5032113;28;20420;-74
2024/01/13 04:21:14;;;;;;;9.27;6.50;;;;;;;;;;5013990;28;20136;-74
2024/01/13 04:23:39;;;;;;;9.38;6.70;;;;;;;;;;5027803;28;20069;-74
2024/01/13 04:26:05;;;;;;;8.25;6.10;;;;;;;;;;5010300;28;20082;-77
2024/01/13 04:28:30;;;;;;;9.15;6.68;;;;;;;;;;5014092;28;20037;-75
2024/01/13 04:30:56;;;;;;;8.68;6.35;;;;;;;;;;5031578;28;20493;-77
2024/01/13 04:33:21;;;;;;;8.73;6.75;;;;;;;;;;5026782;28;20038;-76
2024/01/13 04:35:47;;;;;;;8.77;6.38;;;;;;;;;;5009801;28;20670;-77
2024/01/13 04:38:12;;;;;;;8.95;6.88;;;;;;;;;;5032931;28;20029;-77
2024/01/13 04:40:38;;;;;;;8.20;5.90;;;;;;;;;;5014251;28;20032;-75
2024/01/13 04:43:04;;;;;;;8.27;5.97;;;;;;;;;;5032023;28;20032;-76
2024/01/13 04:45:29;;;;;;;9.77;6.40;;;;;;;;;;5011861;28;20041;-75
2024/01/13 04:47:55;;;;;;;8.55;6.13;;;;;;;;;;5009835;28;20123;-76
2024/01/13 04:50:20;;;;;;;8.15;6.05;;;;;;;;;;5013951;28;20033;-77
2024/01/13 04:52:45;;;;;;;9.05;6.10;;;;;;;;;;5030687;28;20531;-76
2024/01/13 04:55:11;;;;;;;9.07;6.32;;;;;;;;;;5009122;28;20038;-74
2024/01/13 04:57:36;;;;;;;9.30;6.50;;;;;;;;;;5024078;28;20180;-73
2024/01/13 05:00:01;;;;;;;8.07;6.15;;;;;;;;;;5011386;28;20427;-73
2024/01/13 05:02:27;;;;;;;8.57;6.70;;;;;;;;;;5026238;28;20115;-73
2024/01/13 05:04:52;;;;;;;8.98;6.50;;;;;;;;;;4993676;28;20033;-73
2024/01/13 05:07:20;;;;;;;7.50;5.85;;;;;;;;;;5030031;28;20130;-74
2024/01/13 05:09:45;;;;;;;9.10;6.53;;;;;;;;;;5032651;28;20033;-73
2024/01/13 05:12:10;;;;;;;8.27;5.60;;;;;;;;;;5030564;28;20044;-73
2024/01/13 05:14:36;;;;;;;8.90;6.38;;;;;;;;;;5030991;28;20033;-73
2024/01/13 05:17:02;;;;;;;8.48;5.85;;;;;;;;;;5033593;28;20048;-74
2024/01/13 05:19:27;;;;;;;8.50;6.15;;;;;;;;;;5011990;28;20045;-74
2024/01/13 05:21:53;;;;;;;8.70;6.45;;;;;;;;;;5031464;28;20034;-74
2024/01/13 05:24:18;;;;;;;9.25;6.68;;;;;;;;;;5014540;28;20045;-73
2024/01/13 05:26:43;;;;;;;8.10;6.00;;;;;;;;;;5031837;28;20071;-74
2024/01/13 05:29:09;;;;;;;8.20;5.75;;;;;;;;;;5014704;28;20033;-74
2024/01/13 05:31:34;;;;;;;8.18;6.30;;;;;;;;;;5035568;28;20060;-74
2024/01/13 05:33:59;;;;;;;8.70;6.60;;;;;;;;;;5012809;28;20021;-74
2024/01/13 05:36:25;;;;;;;7.88;5.75;;;;;;;;;;5038710;28;20036;-74
2024/01/13 05:38:50;;;;;;;8.70;6.20;;;;;;;;;;5029813;28;20108;-74
2024/01/13 05:41:15;;;;;;;8.68;6.03;;;;;;;;;;5024375;28;20079;-72
2024/01/13 05:43:41;;;;;;;8.20;5.95;;;;;;;;;;5038541;28;20059;-74
2024/01/13 05:46:06;;;;;;;7.85;5.90;;;;;;;;;;5040313;28;20167;-75
2024/01/13 05:48:31;;;;;;;7.50;5.75;;;;;;;;;;5032639;28;20044;-75
2024/01/13 05:50:57;;;;;;;9.23;6.30;;;;;;;;;;5019355;28;20064;-73
2024/01/13 05:53:22;;;;;;;8.50;5.97;;;;;;;;;;4996123;28;20094;-74
2024/01/13 05:55:47;;;;;;;8.05;6.10;;;;;;;;;;5039809;28;20530;-74
2024/01/13 05:58:13;;;;;;;8.38;5.85;;;;;;;;;;5024854;28;20039;-75
2024/01/13 06:00:38;;;;;;;7.50;5.95;;;;;;;;;;5023604;28;20045;-73
2024/01/13 06:03:03;;;;;;;8.35;5.97;;;;;;;;;;5040747;28;20644;-73
2024/01/13 06:05:29;;;;;;;8.98;6.38;;;;;;;;;;5004090;28;20559;-71
2024/01/13 06:07:54;;;;;;;7.97;5.90;;;;;;;;;;5024622;28;20037;-74
2024/01/13 06:10:19;;;;;;;8.15;5.97;;;;;;;;;;5024194;28;20045;-73
2024/01/13 06:12:45;;;;;;;8.88;6.63;;;;;;;;;;5025536;28;20091;-73
2024/01/13 06:15:10;;;;;;;8.10;5.97;;;;;;;;;;5024425;28;20037;-73
2024/01/13 06:17:36;;;;;;;7.95;5.65;;;;;;;;;;5021464;28;20189;-72
2024/01/13 06:22:37;;;;;;;7.75;5.50;;;;;;;;;;1475041;26;20472;-53
2024/01/13 06:25:04;;;;;;;8.43;6.22;;;;;;;;;;5056626;22;20053;-55
2024/01/13 06:27:29;;;;;;;7.45;5.93;;;;;;;;;;5050443;22;20452;-55
2024/01/13 06:29:55;;;;;;;7.18;5.55;;;;;;;;;;5026070;28;20191;-55
2024/01/13 06:32:20;;;;;;;9.02;6.13;;;;;;;;;;5013016;28;20105;-52
2024/01/13 06:34:46;;;;;;;8.52;6.10;;;;;;;;;;5022308;28;20033;-55
2024/01/13 06:37:11;;;;;;;7.63;5.70;;;;;;;;;;5015213;28;20112;-55
2024/01/13 06:39:37;;;;;;;7.50;5.57;;;;;;;;;;5033303;28;20037;-55
2024/01/13 06:42:06;;;;;;;7.70;5.70;;;;;;;;;;5016997;28;20418;-54
2024/01/13 06:44:31;;;;;;;8.93;5.45;;;;;;;;;;5019077;28;20036;-54
2024/01/13 06:46:57;;;;;;;8.27;5.38;;;;;;;;;;5022671;28;20033;-53
2024/01/13 06:49:22;;;;;;;8.98;6.03;;;;;;;;;;5032847;28;20521;-53
2024/01/13 06:51:47;;;;;;;7.32;5.60;;;;;;;;;;5030534;28;20052;-53
2024/01/13 06:54:13;;;;;;;7.65;5.30;;;;;;;;;;5026549;28;20050;-54
2024/01/13 06:56:41;;;;;;;7.97;5.80;;;;;;;;;;5023189;28;20082;-56
2024/01/13 06:59:06;;;;;;;7.55;5.65;;;;;;;;;;5027894;28;20115;-52
2024/01/13 07:01:32;;;;;;;7.07;5.30;;;;;;;;;;5025029;28;20041;-55
2024/01/13 07:03:58;;;;;;;7.55;5.40;;;;;;;;;;5022322;28;20045;-58
2024/01/13 07:06:23;;;;;;;7.22;5.15;;;;;;;;;;5026316;28;20132;-53
2024/01/13 07:08:48;;;;;;;7.68;5.50;;;;;;;;;;5025356;28;20220;-53
2024/01/13 07:11:14;;;;;;;6.85;5.60;;;;;;;;;;5024139;28;20045;-53
2024/01/13 07:13:42;;;;;;;7.10;5.10;;;;;;;;;;5064459;22;20131;-55
2024/01/13 07:16:08;;;;;;;7.50;5.80;;;;;;;;;;5036393;28;20041;-54
2024/01/13 07:18:33;;;;;;;7.00;5.30;;;;;;;;;;5038693;28;20042;-54
2024/01/13 07:20:59;;;;;;;6.85;5.35;;;;;;;;;;5039999;28;20044;-54
2024/01/13 07:23:24;;;;;;;7.75;5.25;;;;;;;;;;5040459;28;20608;-55
2024/01/13 07:25:49;;;;;;;6.20;4.97;;;;;;;;;;5020278;28;20187;-55
2024/01/13 07:28:15;;;;;;;7.00;5.30;;;;;;;;;;5038949;28;20041;-52
2024/01/13 07:30:40;;;;;;;6.95;5.18;;;;;;;;;;5047000;28;20025;-54
2024/01/13 07:33:05;;;;;;;8.48;5.82;;;;;;;;;;5048134;28;20475;-54
2024/01/13 07:35:30;;;;;;;7.90;5.40;;;;;;;;;;5045809;28;20490;-54
2024/01/13 07:37:56;;;;;;;7.28;5.50;;;;;;;;;;5043503;28;20578;-54
2024/01/13 07:40:21;;;;;;;6.70;5.10;;;;;;;;;;5041081;28;20156;-53
2024/01/13 07:42:47;;;;;;;7.50;5.55;;;;;;;;;;5041266;28;20074;-55
2024/01/13 07:45:13;;;;;;;7.70;5.22;;;;;;;;;;5040946;28;20037;-54
2024/01/13 07:47:38;;;;;;;6.88;5.20;;;;;;;;;;5038396;28;20041;-55
2024/01/13 07:50:03;;;;;;;6.90;4.80;;;;;;;;;;5022199;28;20118;-55
2024/01/13 07:52:29;;;;;;;7.00;5.32;;;;;;;;;;5042409;28;20087;-55
2024/01/13 07:54:54;;;;;;;6.85;5.03;;;;;;;;;;4999758;28;20501;-54
2024/01/13 07:57:20;;;;;;;7.95;5.38;;;;;;;;;;5037705;28;20041;-54
2024/01/13 07:59:45;;;;;;;6.82;4.90;;;;;;;;;;5039367;28;20140;-54
2024/01/13 08:02:10;;;;;;;7.95;5.78;;;;;;;;;;5037432;28;20120;-54
2024/01/13 08:04:36;;;;;;;7.28;5.35;;;;;;;;;;5034151;28;20174;-54
2024/01/13 08:07:01;;;;;;;8.57;5.57;;;;;;;;;;5037989;28;20055;-54
2024/01/13 08:09:26;;;;;;;7.35;5.10;;;;;;;;;;5038947;28;20047;-54
2024/01/13 08:11:52;;;;;;;7.65;5.15;;;;;;;;;;5040849;28;20041;-55
2024/01/13 08:14:17;;;;;;;7.10;4.97;;;;;;;;;;5041144;28;20044;-58
2024/01/13 08:16:43;;;;;;;6.43;5.00;;;;;;;;;;5044016;28;20043;-53
2024/01/13 08:19:10;;;;;;;6.40;5.10;;;;;;;;;;5041274;28;20045;-54
2024/01/13 08:21:35;;;;;;;6.95;5.15;;;;;;;;;;5044746;28;20437;-55
2024/01/13 08:24:00;;;;;;;5.80;4.55;;;;;;;;;;5042753;28;20033;-55
2024/01/13 08:26:26;;;;;;;5.93;4.57;;;;;;;;;;5044213;28;20063;-54
2024/01/13 08:28:51;;;;;;;7.20;5.07;;;;;;;;;;5025566;28;20028;-54
2024/01/13 08:31:16;;;;;;;7.22;5.18;;;;;;;;;;5038522;28;20044;-55
2024/01/13 08:33:42;;;;;;;6.00;4.47;;;;;;;;;;5037150;28;20033;-54
2024/01/13 08:36:07;;;;;;;9.25;5.40;;;;;;;;;;5037855;28;20033;-53
2024/01/13 08:38:32;;;;;;;8.13;5.43;;;;;;;;;;5042757;28;20021;-55
2024/01/13 08:40:58;;;;;;;7.07;4.85;;;;;;;;;;5042491;28;20028;-53
2024/01/13 08:43:23;;;;;;;6.65;4.70;;;;;;;;;;5036892;28;20051;-54
2024/01/13 08:45:49;;;;;;;8.25;4.80;;;;;;;;;;5034532;28;20025;-53
2024/01/13 08:48:15;;;;;;;6.75;4.72;;;;;;;;;;5031618;28;20029;-56
2024/01/13 08:50:41;;;;;;;8.00;5.00;;;;;;;;;;5036331;28;20025;-54
2024/01/13 08:53:06;;;;;;;8.02;5.05;;;;;;;;;;5038074;28;20037;-54
2024/01/13 08:55:31;;;;;;;7.10;4.97;;;;;;;;;;5037766;28;20043;-53
2024/01/13 08:57:57;;;;;;;7.82;5.00;;;;;;;;;;5039215;28;20037;-56
2024/01/13 09:00:22;;;;;;;6.22;4.65;;;;;;;;;;5037661;28;20127;-53
2024/01/13 09:02:48;;;;;;;6.88;5.00;;;;;;;;;;5035975;28;20107;-55
2024/01/13 09:05:13;;;;;;;7.25;4.95;;;;;;;;;;5039025;28;20078;-54
2024/01/13 09:07:38;;;;;;;6.03;4.78;;;;;;;;;;5041296;28;20484;-53
2024/01/13 09:10:04;;;;;;;6.63;4.63;;;;;;;;;;5042397;28;20021;-54
2024/01/13 09:12:29;;;;;;;6.60;4.75;;;;;;;;;;5042972;28;20366;-54
2024/01/13 09:14:55;;;;;;;8.32;5.10;;;;;;;;;;5044127;28;20085;-53
2024/01/13 09:17:20;;;;;;;8.15;5.03;;;;;;;;;;5023462;28;20033;-54
2024/01/13 09:19:45;;;;;;;7.35;5.30;;;;;;;;;;5043862;28;20094;-54
2024/01/13 09:22:10;;;;;;;9.18;5.88;;;;;;;;;;5042376;28;20408;-54
2024/01/13 09:24:36;;;;;;;8.77;5.70;;;;;;;;;;5039317;28;20071;-55
2024/01/13 09:27:01;;;;;;;7.43;5.68;;;;;;;;;;5039086;28;20025;-54
2024/01/13 09:29:27;;;;;;;9.50;6.63;;;;;;;;;;5022133;28;20029;-54
2024/01/13 09:31:52;;;;;;;9.98;6.50;;;;;;;;;;5040273;28;20032;-55
2024/01/13 09:34:17;;;;;;;9.35;6.00;;;;;;;;;;5040132;28;20037;-56
2024/01/13 09:36:44;;;;;;;8.50;5.68;;;;;;;;;;5039209;28;20028;-55
2024/01/13 09:39:11;;;;;;;9.85;5.57;;;;;;;;;;5038466;28;20025;-55
2024/01/13 09:41:36;;;;;;;7.25;5.50;;;;;;;;;;5040486;28;20024;-55
2024/01/13 09:44:05;;;;;;;8.48;5.63;;;;;;;;;;5038662;28;20021;-54
2024/01/13 09:46:30;;;;;;;7.50;5.28;;;;;;;;;;5038616;28;20446;-54
2024/01/13 09:48:55;;;;;;;8.52;5.47;;;;;;;;;;5038793;28;20126;-54
2024/01/13 09:51:21;;;;;;;7.40;5.05;;;;;;;;;;5020443;28;20080;-54
2024/01/13 09:53:47;;;;;;;8.93;5.55;;;;;;;;;;5041662;28;20535;-54
2024/01/13 09:56:17;;;;;;;8.40;5.45;;;;;;;;;;5014983;28;20040;-54
2024/01/13 09:58:42;;;;;;;;;;;;;;;;;;5020861;28;20071;-54
2024/01/13 10:01:08;;;;;;;7.30;5.30;;;;;;;;;;5040193;28;20007;-55
2024/01/13 10:03:33;;;;;;;7.90;5.55;;;;;;;;;;5042636;28;20037;-55
2024/01/13 10:05:59;;;;;;;8.05;5.50;;;;;;;;;;5036256;28;20136;-55
2024/01/13 10:08:30;;;;;;;7.07;5.38;;;;;;;;;;5034041;28;20497;-55
2024/01/13 10:10:55;;;;;;;11.55;5.18;;;;;;;;;;5036088;28;20132;-55
2024/01/13 10:13:21;;;;;;;7.07;4.82;;;;;;;;;;5038856;28;20123;-55
2024/01/13 10:15:46;;;;;;;8.38;5.55;;;;;;;;;;5038902;28;20783;-55
2024/01/13 10:18:11;;;;;;;8.05;5.18;;;;;;;;;;5035572;28;20037;-54
2024/01/13 10:20:36;;;;;;;8.00;5.45;;;;;;;;;;5042812;28;20546;-54
2024/01/13 10:23:02;;;;;;;8.35;5.20;;;;;;;;;;5047113;28;20040;-53
2024/01/13 10:25:27;;;;;;;7.53;4.97;;;;;;;;;;5040566;28;20041;-54
2024/01/13 10:27:52;;;;;;;7.50;4.80;;;;;;;;;;5040925;28;20090;-54
2024/01/13 10:30:18;;;;;;;7.32;4.95;;;;;;;;;;5042168;28;20033;-55
2024/01/13 10:32:43;;;;;;;7.10;4.45;;;;;;;;;;5041217;28;20103;-53
2024/01/13 10:35:08;;;;;;;7.43;4.80;;;;;;;;;;5040436;28;20386;-56
2024/01/13 10:37:37;;;;;;;7.78;5.35;;;;;;;;;;5039547;28;20052;-57
2024/01/13 10:40:02;;;;;;;11.07;4.82;;;;;;;;;;5042972;28;20528;-56
2024/01/13 10:42:29;;;;;;;6.88;4.88;;;;;;;;;;5040672;28;20384;-56
2024/01/13 10:44:57;;;;;;;6.57;4.65;;;;;;;;;;5039687;28;20040;-55
2024/01/13 10:47:30;;;;;;;6.90;4.88;;;;;;;;;;5027752;28;20072;-56
2024/01/13 10:49:55;;;;;;;6.47;4.93;;;;;;;;;;5032933;28;20040;-56
2024/01/13 10:52:23;;;;;;;7.45;5.07;;;;;;;;;;5047842;28;20098;-57
2024/01/13 10:54:49;;;;;;;7.50;4.97;;;;;;;;;;5042549;28;20043;-55
2024/01/13 10:57:14;;;;;;;8.07;4.80;;;;;;;;;;5041736;28;20029;-56
2024/01/13 10:59:40;;;;;;;7.80;5.00;;;;;;;;;;5025141;28;20437;-56
2024/01/13 11:02:06;;;;;;;6.90;5.05;;;;;;;;;;5037071;28;20072;-57
2024/01/13 11:04:31;;;;;;;7.10;4.72;;;;;;;;;;5034704;28;20029;-56
2024/01/13 11:06:56;;;;;;;6.57;4.53;;;;;;;;;;5038439;28;20052;-57
2024/01/13 11:09:23;;;;;;;6.72;4.63;;;;;;;;;;5041591;28;20033;-56
2024/01/13 11:12:01;;;;;;;6.05;4.43;;;;;;;;;;5001270;28;20041;-57
2024/01/13 11:14:28;;;;;;;7.38;4.60;;;;;;;;;;5038898;28;20183;-56
2024/01/13 11:16:54;;;;;;;6.53;4.32;;;;;;;;;;5038072;28;20164;-56
2024/01/13 11:19:19;;;;;;;6.60;4.20;;;;;;;;;;5036610;28;20062;-57
2024/01/13 11:21:48;;;;;;;6.05;4.47;;;;;;;;;;5035135;28;20037;-58
2024/01/13 11:24:13;;;;;;;6.53;4.38;;;;;;;;;;5017313;28;20033;-55
2024/01/13 11:26:43;;;;;;;6.38;4.63;;;;;;;;;;5035482;28;20052;-56
2024/01/13 11:29:25;;;;;;;6.70;4.75;;;;;;;;;;5038082;28;20080;-56
2024/01/13 11:31:57;;;;;;;6.25;4.30;;;;;;;;;;5019158;28;20489;-57
2024/01/13 11:34:23;;;;;;;7.80;4.80;;;;;;;;;;5037414;28;20444;-57
2024/01/13 11:36:52;;;;;;;6.95;4.15;;;;;;;;;;5038057;28;20040;-56
2024/01/13 11:39:18;;;;;;;6.32;4.13;;;;;;;;;;5019922;28;20098;-56
2024/01/13 11:41:48;;;;;;;6.00;4.28;;;;;;;;;;5038021;28;20348;-57
2024/01/13 11:44:19;;;;;;;6.40;4.32;;;;;;;;;;5037244;28;20480;-55
2024/01/13 11:46:55;;;;;;;5.35;4.43;;;;;;;;;;5040355;28;20516;-57
2024/01/13 11:49:30;;;;;;;7.43;4.38;;;;;;;;;;5018315;28;20041;-57
2024/01/13 11:51:59;;;;;;;6.72;4.72;;;;;;;;;;5019384;28;20127;-56
2024/01/13 11:54:25;;;;;;;6.30;4.60;;;;;;;;;;5034279;28;20409;-57
2024/01/13 11:56:50;;;;;;;6.90;4.50;;;;;;;;;;5021528;28;20059;-57
2024/01/13 11:59:16;;;;;;;5.93;4.28;;;;;;;;;;5018535;28;20026;-56
2024/01/13 12:01:41;;;;;;;7.95;4.80;;;;;;;;;;5035286;28;20030;-56
2024/01/13 12:04:07;;;;;;;7.00;4.82;;;;;;;;;;5014399;28;20025;-57
2024/01/13 12:09:36;;;;;;;6.35;4.55;;;;;;;;;;5028669;22;20084;-80
2024/01/13 12:12:05;;;;;;;6.40;4.40;;;;;;;;;;5010077;28;20121;-75
2024/01/13 12:14:32;;;;;;;6.47;4.63;;;;;;;;;;5024355;28;20423;-71
2024/01/13 12:16:58;;;;;;;6.88;4.95;;;;;;;;;;5033407;28;20037;-73
2024/01/13 12:19:29;;;;;;;7.63;4.18;;;;;;;;;;5031203;28;20040;-76
2024/01/13 12:21:55;;;;;;;6.38;4.20;;;;;;;;;;5011287;28;20047;-74
2024/01/13 12:24:25;;;;;;;6.65;4.18;;;;;;;;;;5036971;28;20038;-74
2024/01/13 12:26:50;;;;;;;6.03;4.68;;;;;;;;;;5013906;28;20124;-73
2024/01/13 12:29:16;;;;;;;5.93;4.32;;;;;;;;;;5030059;22;20754;-56
2024/01/13 12:31:41;;;;;;;8.65;5.30;;;;;;;;;;5009043;28;20955;-56
2024/01/13 12:34:10;;;;;;;6.32;4.50;;;;;;;;;;5016529;28;20568;-54
2024/01/13 12:36:36;;;;;;;7.55;4.88;;;;;;;;;;4992668;28;20093;-55
2024/01/13 12:46:47;;;;;;;5.97;4.53;;;;;;;;;;4636691;22;20139;-53
2024/01/13 12:49:12;;;;;;;6.25;4.50;;;;;;;;;;5145809;22;20131;-55
2024/01/13 12:51:42;;;;;;;6.90;4.38;;;;;;;;;;5037305;28;20029;-54
2024/01/13 12:54:07;;;;;;;6.70;4.40;;;;;;;;;;5038967;28;20029;-54
2024/01/13 12:56:33;;;;;;;6.70;4.72;;;;;;;;;;5040551;28;20031;-55
2024/01/13 12:58:58;;;;;;;5.43;4.10;;;;;;;;;;5043254;28;20041;-55
2024/01/13 13:01:23;;;;;;;7.82;5.18;;;;;;;;;;5043144;28;20037;-53
2024/01/13 13:03:49;;;;;;;5.93;4.88;;;;;;;;;;5043485;28;20044;-54
2024/01/13 13:09:17;;;;;;;6.38;4.20;;;;;;;;;;5059328;22;20114;-75
2024/01/13 13:11:43;;;;;;;6.38;4.15;;;;;;;;;;5065510;28;20107;-85
2024/01/13 13:14:09;;;;;;;6.13;4.38;;;;;;;;;;5066421;28;20088;-89
2024/01/13 13:16:35;;;;;;;6.35;4.35;;;;;;;;;;5078000;28;20474;-78
2024/01/13 13:19:00;;;;;;;6.13;4.70;;;;;;;;;;5068795;28;20074;-89
2024/01/13 13:21:26;;;;;;;6.35;4.40;;;;;;;;;;5055231;28;20425;-86
2024/01/13 13:23:51;;;;;;;7.35;4.50;;;;;;;;;;5048166;28;20601;-79
2024/01/13 13:28:50;;;;;;;6.03;4.40;;;;;;;;;;4997523;22;20063;-56
2024/01/13 13:31:16;;;;;;;6.38;4.53;;;;;;;;;;5038374;28;20033;-55
2024/01/13 13:33:42;;;;;;;6.07;4.57;;;;;;;;;;5039923;28;20475;-56
2024/01/13 13:36:07;;;;;;;5.57;4.20;;;;;;;;;;5042108;28;20501;-56
2024/01/13 13:38:32;;;;;;;6.18;4.40;;;;;;;;;;5038511;28;20033;-55
2024/01/13 13:40:59;;;;;;;5.25;4.05;;;;;;;;;;5042325;28;20033;-53
2024/01/13 13:43:26;;;;;;;6.03;4.45;;;;;;;;;;5044638;28;20532;-57
2024/01/13 13:45:52;;;;;;;5.53;4.55;;;;;;;;;;5044341;28;20030;-56
2024/01/13 13:48:18;;;;;;;6.85;4.45;;;;;;;;;;5134787;23;20188;-57
2024/01/13 13:50:43;;;;;;;6.50;4.30;;;;;;;;;;5039513;28;20477;-56
2024/01/13 13:53:08;;;;;;;6.43;4.45;;;;;;;;;;5040961;28;20040;-56
2024/01/13 13:55:34;;;;;;;5.53;4.20;;;;;;;;;;5043683;28;20033;-58
2024/01/13 13:58:00;;;;;;;7.53;4.40;;;;;;;;;;5058310;28;20025;-58
2024/01/13 14:00:25;;;;;;;6.28;4.80;;;;;;;;;;5062762;28;20466;-57
2024/01/13 14:02:50;;;;;;;6.68;4.50;;;;;;;;;;5048779;28;20048;-56
2024/01/13 14:05:16;;;;;;;6.28;4.15;;;;;;;;;;5058940;28;20040;-57
2024/01/13 14:07:42;;;;;;;5.78;4.40;;;;;;;;;;5059933;28;20080;-58
2024/01/13 14:10:07;;;;;;;5.93;4.30;;;;;;;;;;5056461;28;20033;-56
2024/01/13 14:12:32;;;;;;;5.60;4.30;;;;;;;;;;5060542;28;20090;-55
2024/01/13 14:14:58;;;;;;;7.35;4.32;;;;;;;;;;5058241;28;20498;-57
2024/01/13 14:17:23;;;;;;;6.78;4.40;;;;;;;;;;5057567;28;20234;-57
2024/01/13 14:19:49;;;;;;;7.15;4.20;;;;;;;;;;5059327;28;20530;-57
2024/01/13 14:22:14;;;;;;;5.78;4.35;;;;;;;;;;5062048;28;20039;-56
2024/01/13 14:24:39;;;;;;;5.68;4.40;;;;;;;;;;5062538;28;20063;-56
2024/01/13 14:27:06;;;;;;;6.80;4.40;;;;;;;;;;5056396;28;20044;-56
2024/01/13 14:29:31;;;;;;;6.00;4.50;;;;;;;;;;5057299;28;20067;-57
2024/01/13 14:31:56;;;;;;;5.38;4.10;;;;;;;;;;5052433;28;20080;-56
2024/01/13 14:34:22;;;;;;;6.43;4.30;;;;;;;;;;5040775;28;20036;-57
2024/01/13 14:36:47;;;;;;;7.47;4.47;;;;;;;;;;5056962;28;20025;-58
2024/01/13 14:39:13;;;;;;;5.78;4.63;;;;;;;;;;5052038;28;20029;-56
2024/01/13 14:41:38;;;;;;;5.97;4.07;;;;;;;;;;5049940;28;20040;-56
2024/01/13 14:44:04;;;;;;;5.85;4.25;;;;;;;;;;5057454;28;20035;-56
2024/01/13 14:46:30;;;;;;;6.38;4.07;;;;;;;;;;5056922;28;20401;-56
2024/01/13 14:48:55;;;;;;;5.65;4.35;;;;;;;;;;5055424;28;20061;-56
2024/01/13 14:51:21;;;;;;;6.45;4.35;;;;;;;;;;5056878;28;20468;-56
2024/01/13 14:53:47;;;;;;;5.95;4.20;;;;;;;;;;5055755;28;20110;-57